sensor_id;sensor_type;location;lat;lon;timestamp;P1;durP1;ratioP1;P2;durP2;ratioP2
13832;SDS011;6987;19.472;-99.276;2024-02-15T00:00:05;9.10;;;6.43;;
13832;SDS011;6987;19.472;-99.276;2024-02-15T00:02:34;9.32;;;6.43;;
13832;SDS011;6987;19.472;-99.276;2024-02-15T00:05:04;10.10;;;6.03;;
13832;SDS011;6987;19.472;-99.276;2024-02-15T00:07:35;14.18;;;5.70;;
13832;SDS011;6987;19.472;-99.276;2024-02-15T00:10:04;9.48;;;5.63;;
13832;SDS011;6987;19.472;-99.276;2024-02-15T00:12:34;6.97;;;4.97;;
13832;SDS011;6987;19.472;-99.276;2024-02-15T00:15:03;8.02;;;5.22;;
13832;SDS011;6987;19.472;-99.276;2024-02-15T00:17:33;7.68;;;4.65;;
13832;SDS011;6987;19.472;-99.276;2024-02-15T00:20:02;7.47;;;4.90;;
13832;SDS011;6987;19.472;-99.276;2024-02-15T00:22:37;5.30;;;4.57;;
13832;SDS011;6987;19.472;-99.276;2024-02-15T00:25:07;6.95;;;4.68;;
13832;SDS011;6987;19.472;-99.276;2024-02-15T00:27:36;7.70;;;4.47;;
13832;SDS011;6987;19.472;-99.276;2024-02-15T00:30:06;6.22;;;4.32;;
13832;SDS011;6987;19.472;-99.276;2024-02-15T00:32:34;9.93;;;4.32;;
13832;SDS011;6987;19.472;-99.276;2024-02-15T00:35:04;4.57;;;3.83;;
13832;SDS011;6987;19.472;-99.276;2024-02-15T00:37:36;15.02;;;4.43;;
13832;SDS011;6987;19.472;-99.276;2024-02-15T00:40:06;4.60;;;4.20;;
13832;SDS011;6987;19.472;-99.276;2024-02-15T00:42:35;6.45;;;4.50;;
13832;SDS011;6987;19.472;-99.276;2024-02-15T00:45:04;4.47;;;4.10;;
13832;SDS011;6987;19.472;-99.276;2024-02-15T00:47:33;4.38;;;4.07;;
13832;SDS011;6987;19.472;-99.276;2024-02-15T00:50:02;9.55;;;4.82;;
13832;SDS011;6987;19.472;-99.276;2024-02-15T00:52:31;6.30;;;4.18;;
13832;SDS011;6987;19.472;-99.276;2024-02-15T00:55:02;8.55;;;4.40;;
13832;SDS011;6987;19.472;-99.276;2024-02-15T00:57:31;9.43;;;4.13;;
13832;SDS011;6987;19.472;-99.276;2024-02-15T01:00:00;4.03;;;3.55;;
13832;SDS011;6987;19.472;-99.276;2024-02-15T01:02:29;7.80;;;4.15;;
13832;SDS011;6987;19.472;-99.276;2024-02-15T01:04:58;7.40;;;4.22;;
13832;SDS011;6987;19.472;-99.276;2024-02-15T01:07:27;7.68;;;4.40;;
13832;SDS011;6987;19.472;-99.276;2024-02-15T01:09:55;16.83;;;5.43;;
13832;SDS011;6987;19.472;-99.276;2024-02-15T01:12:26;10.88;;;4.35;;
13832;SDS011;6987;19.472;-99.276;2024-02-15T01:14:55;5.60;;;4.25;;
13832;SDS011;6987;19.472;-99.276;2024-02-15T01:17:24;9.57;;;3.47;;
13832;SDS011;6987;19.472;-99.276;2024-02-15T01:19:52;7.88;;;3.00;;
13832;SDS011;6987;19.472;-99.276;2024-02-15T01:22:21;5.82;;;3.38;;
13832;SDS011;6987;19.472;-99.276;2024-02-15T01:24:52;6.32;;;3.30;;
13832;SDS011;6987;19.472;-99.276;2024-02-15T01:27:23;7.72;;;3.00;;
13832;SDS011;6987;19.472;-99.276;2024-02-15T01:29:57;11.82;;;3.13;;
13832;SDS011;6987;19.472;-99.276;2024-02-15T01:32:26;9.30;;;3.42;;
13832;SDS011;6987;19.472;-99.276;2024-02-15T01:34:55;5.60;;;2.65;;
13832;SDS011;6987;19.472;-99.276;2024-02-15T01:37:24;2.78;;;2.50;;
13832;SDS011;6987;19.472;-99.276;2024-02-15T01:39:53;7.75;;;2.80;;
13832;SDS011;6987;19.472;-99.276;2024-02-15T01:42:21;2.63;;;2.25;;
13832;SDS011;6987;19.472;-99.276;2024-02-15T01:44:50;4.07;;;2.63;;
13832;SDS011;6987;19.472;-99.276;2024-02-15T01:47:20;10.98;;;2.65;;
13832;SDS011;6987;19.472;-99.276;2024-02-15T01:49:50;7.32;;;2.60;;
13832;SDS011;6987;19.472;-99.276;2024-02-15T01:52:19;4.97;;;2.13;;
13832;SDS011;6987;19.472;-99.276;2024-02-15T01:54:48;2.78;;;2.22;;
13832;SDS011;6987;19.472;-99.276;2024-02-15T01:57:18;4.40;;;2.60;;
13832;SDS011;6987;19.472;-99.276;2024-02-15T01:59:49;5.45;;;2.47;;
13832;SDS011;6987;19.472;-99.276;2024-02-15T02:02:21;3.05;;;2.60;;
13832;SDS011;6987;19.472;-99.276;2024-02-15T02:04:51;2.72;;;2.47;;
13832;SDS011;6987;19.472;-99.276;2024-02-15T02:07:20;4.85;;;2.75;;
13832;SDS011;6987;19.472;-99.276;2024-02-15T02:09:49;6.15;;;2.35;;
13832;SDS011;6987;19.472;-99.276;2024-02-15T02:12:18;6.82;;;2.20;;
13832;SDS011;6987;19.472;-99.276;2024-02-15T02:14:46;2.50;;;2.20;;
13832;SDS011;6987;19.472;-99.276;2024-02-15T02:17:16;1.85;;;1.75;;
13832;SDS011;6987;19.472;-99.276;2024-02-15T02:19:47;2.95;;;1.95;;
13832;SDS011;6987;19.472;-99.276;2024-02-15T02:22:17;4.20;;;1.95;;
13832;SDS011;6987;19.472;-99.276;2024-02-15T02:25:04;2.95;;;1.75;;
13832;SDS011;6987;19.472;-99.276;2024-02-15T02:27:34;6.03;;;2.00;;
13832;SDS011;6987;19.472;-99.276;2024-02-15T02:30:03;2.35;;;1.98;;
13832;SDS011;6987;19.472;-99.276;2024-02-15T02:32:36;7.05;;;2.25;;
13832;SDS011;6987;19.472;-99.276;2024-02-15T02:35:05;8.98;;;1.80;;
13832;SDS011;6987;19.472;-99.276;2024-02-15T02:37:37;2.80;;;1.85;;
13832;SDS011;6987;19.472;-99.276;2024-02-15T02:40:08;4.55;;;1.80;;
13832;SDS011;6987;19.472;-99.276;2024-02-15T02:42:47;1.98;;;1.73;;
13832;SDS011;6987;19.472;-99.276;2024-02-15T02:45:16;3.47;;;1.80;;
13832;SDS011;6987;19.472;-99.276;2024-02-15T02:47:45;2.35;;;1.75;;
13832;SDS011;6987;19.472;-99.276;2024-02-15T02:50:14;5.03;;;2.30;;
13832;SDS011;6987;19.472;-99.276;2024-02-15T02:52:43;6.05;;;1.98;;
13832;SDS011;6987;19.472;-99.276;2024-02-15T02:55:15;5.50;;;2.20;;
13832;SDS011;6987;19.472;-99.276;2024-02-15T02:57:44;4.68;;;2.47;;
13832;SDS011;6987;19.472;-99.276;2024-02-15T03:00:13;5.32;;;2.60;;
13832;SDS011;6987;19.472;-99.276;2024-02-15T03:02:42;5.60;;;2.05;;
13832;SDS011;6987;19.472;-99.276;2024-02-15T03:05:11;13.93;;;2.65;;
13832;SDS011;6987;19.472;-99.276;2024-02-15T03:07:40;5.28;;;2.55;;
13832;SDS011;6987;19.472;-99.276;2024-02-15T03:10:10;4.82;;;2.17;;
13832;SDS011;6987;19.472;-99.276;2024-02-15T03:12:41;3.22;;;2.10;;
13832;SDS011;6987;19.472;-99.276;2024-02-15T03:15:12;6.50;;;2.20;;
13832;SDS011;6987;19.472;-99.276;2024-02-15T03:17:42;3.38;;;2.40;;
13832;SDS011;6987;19.472;-99.276;2024-02-15T03:20:11;9.65;;;2.85;;
13832;SDS011;6987;19.472;-99.276;2024-02-15T03:22:50;6.57;;;2.22;;
13832;SDS011;6987;19.472;-99.276;2024-02-15T03:25:19;5.57;;;2.63;;
13832;SDS011;6987;19.472;-99.276;2024-02-15T03:27:51;4.57;;;2.15;;
13832;SDS011;6987;19.472;-99.276;2024-02-15T03:30:20;3.63;;;2.25;;
13832;SDS011;6987;19.472;-99.276;2024-02-15T03:32:49;5.88;;;2.42;;
13832;SDS011;6987;19.472;-99.276;2024-02-15T03:35:18;5.30;;;2.40;;
13832;SDS011;6987;19.472;-99.276;2024-02-15T03:37:48;8.90;;;2.42;;
13832;SDS011;6987;19.472;-99.276;2024-02-15T03:40:17;4.75;;;2.60;;
13832;SDS011;6987;19.472;-99.276;2024-02-15T03:42:46;3.50;;;2.30;;
13832;SDS011;6987;19.472;-99.276;2024-02-15T03:45:17;9.35;;;2.85;;
13832;SDS011;6987;19.472;-99.276;2024-02-15T03:47:46;4.85;;;2.78;;
13832;SDS011;6987;19.472;-99.276;2024-02-15T03:50:15;10.52;;;3.25;;
13832;SDS011;6987;19.472;-99.276;2024-02-15T03:52:45;5.85;;;2.88;;
13832;SDS011;6987;19.472;-99.276;2024-02-15T03:55:14;5.28;;;2.67;;
13832;SDS011;6987;19.472;-99.276;2024-02-15T03:57:43;10.20;;;2.90;;
13832;SDS011;6987;19.472;-99.276;2024-02-15T04:00:12;7.13;;;2.88;;
13832;SDS011;6987;19.472;-99.276;2024-02-15T04:02:48;6.60;;;2.83;;
13832;SDS011;6987;19.472;-99.276;2024-02-15T04:05:17;10.95;;;2.88;;
13832;SDS011;6987;19.472;-99.276;2024-02-15T04:07:47;3.72;;;2.83;;
13832;SDS011;6987;19.472;-99.276;2024-02-15T04:10:16;5.15;;;2.80;;
13832;SDS011;6987;19.472;-99.276;2024-02-15T04:12:45;7.63;;;3.05;;
13832;SDS011;6987;19.472;-99.276;2024-02-15T04:15:14;7.43;;;2.75;;
13832;SDS011;6987;19.472;-99.276;2024-02-15T04:17:44;3.92;;;2.33;;
13832;SDS011;6987;19.472;-99.276;2024-02-15T04:20:14;7.93;;;2.78;;
13832;SDS011;6987;19.472;-99.276;2024-02-15T04:22:43;5.43;;;2.28;;
13832;SDS011;6987;19.472;-99.276;2024-02-15T04:25:13;3.67;;;2.67;;
13832;SDS011;6987;19.472;-99.276;2024-02-15T04:27:43;4.97;;;2.67;;
13832;SDS011;6987;19.472;-99.276;2024-02-15T04:30:12;11.05;;;3.30;;
13832;SDS011;6987;19.472;-99.276;2024-02-15T04:32:41;6.20;;;3.10;;
13832;SDS011;6987;19.472;-99.276;2024-02-15T04:35:10;8.10;;;2.40;;
13832;SDS011;6987;19.472;-99.276;2024-02-15T04:37:41;8.40;;;2.60;;
13832;SDS011;6987;19.472;-99.276;2024-02-15T04:40:12;4.97;;;2.60;;
13832;SDS011;6987;19.472;-99.276;2024-02-15T04:42:44;8.13;;;3.40;;
13832;SDS011;6987;19.472;-99.276;2024-02-15T04:45:13;3.92;;;2.80;;
13832;SDS011;6987;19.472;-99.276;2024-02-15T04:47:41;24.65;;;3.40;;
13832;SDS011;6987;19.472;-99.276;2024-02-15T04:50:11;7.28;;;3.00;;
13832;SDS011;6987;19.472;-99.276;2024-02-15T04:52:42;7.72;;;3.20;;
13832;SDS011;6987;19.472;-99.276;2024-02-15T04:55:14;8.23;;;2.97;;
13832;SDS011;6987;19.472;-99.276;2024-02-15T04:57:43;7.70;;;3.10;;
13832;SDS011;6987;19.472;-99.276;2024-02-15T05:00:14;7.90;;;2.70;;
13832;SDS011;6987;19.472;-99.276;2024-02-15T05:02:46;4.10;;;2.70;;
13832;SDS011;6987;19.472;-99.276;2024-02-15T05:05:15;11.43;;;3.22;;
13832;SDS011;6987;19.472;-99.276;2024-02-15T05:07:45;9.23;;;2.20;;
13832;SDS011;6987;19.472;-99.276;2024-02-15T05:10:14;18.30;;;3.50;;
13832;SDS011;6987;19.472;-99.276;2024-02-15T05:12:43;7.53;;;3.00;;
13832;SDS011;6987;19.472;-99.276;2024-02-15T05:15:14;11.10;;;2.88;;
13832;SDS011;6987;19.472;-99.276;2024-02-15T05:17:43;10.48;;;3.00;;
13832;SDS011;6987;19.472;-99.276;2024-02-15T05:20:13;9.73;;;3.30;;
13832;SDS011;6987;19.472;-99.276;2024-02-15T05:22:46;8.18;;;3.50;;
13832;SDS011;6987;19.472;-99.276;2024-02-15T05:25:16;11.10;;;3.42;;
13832;SDS011;6987;19.472;-99.276;2024-02-15T05:27:48;17.60;;;3.75;;
13832;SDS011;6987;19.472;-99.276;2024-02-15T05:30:17;9.05;;;3.75;;
13832;SDS011;6987;19.472;-99.276;2024-02-15T05:32:46;4.43;;;3.30;;
13832;SDS011;6987;19.472;-99.276;2024-02-15T05:35:15;11.95;;;4.35;;
13832;SDS011;6987;19.472;-99.276;2024-02-15T05:37:44;4.88;;;3.58;;
13832;SDS011;6987;19.472;-99.276;2024-02-15T05:40:15;10.07;;;4.30;;
13832;SDS011;6987;19.472;-99.276;2024-02-15T05:42:45;9.05;;;4.22;;
13832;SDS011;6987;19.472;-99.276;2024-02-15T05:45:28;4.85;;;3.63;;
13832;SDS011;6987;19.472;-99.276;2024-02-15T05:47:58;7.38;;;4.00;;
13832;SDS011;6987;19.472;-99.276;2024-02-15T05:50:27;11.80;;;4.85;;
13832;SDS011;6987;19.472;-99.276;2024-02-15T05:52:57;6.30;;;3.92;;
13832;SDS011;6987;19.472;-99.276;2024-02-15T05:55:28;7.85;;;4.00;;
13832;SDS011;6987;19.472;-99.276;2024-02-15T05:58:00;9.40;;;4.47;;
13832;SDS011;6987;19.472;-99.276;2024-02-15T06:00:29;10.55;;;4.70;;
13832;SDS011;6987;19.472;-99.276;2024-02-15T06:02:59;6.70;;;4.05;;
13832;SDS011;6987;19.472;-99.276;2024-02-15T06:05:29;8.38;;;4.40;;
13832;SDS011;6987;19.472;-99.276;2024-02-15T06:07:58;8.40;;;4.20;;
13832;SDS011;6987;19.472;-99.276;2024-02-15T06:10:28;5.90;;;3.63;;
13832;SDS011;6987;19.472;-99.276;2024-02-15T06:12:57;6.43;;;3.78;;
13832;SDS011;6987;19.472;-99.276;2024-02-15T06:15:26;8.68;;;3.78;;
13832;SDS011;6987;19.472;-99.276;2024-02-15T06:17:55;7.43;;;4.13;;
13832;SDS011;6987;19.472;-99.276;2024-02-15T06:20:24;8.55;;;3.80;;
13832;SDS011;6987;19.472;-99.276;2024-02-15T06:22:55;8.35;;;3.53;;
13832;SDS011;6987;19.472;-99.276;2024-02-15T06:25:24;14.68;;;3.88;;
13832;SDS011;6987;19.472;-99.276;2024-02-15T06:27:56;6.43;;;3.35;;
13832;SDS011;6987;19.472;-99.276;2024-02-15T06:30:28;6.88;;;2.90;;
13832;SDS011;6987;19.472;-99.276;2024-02-15T06:33:13;7.18;;;2.90;;
13832;SDS011;6987;19.472;-99.276;2024-02-15T06:35:59;8.45;;;2.47;;
13832;SDS011;6987;19.472;-99.276;2024-02-15T06:38:44;5.28;;;2.83;;
13832;SDS011;6987;19.472;-99.276;2024-02-15T06:41:38;6.60;;;2.85;;
13832;SDS011;6987;19.472;-99.276;2024-02-15T06:44:09;4.60;;;2.63;;
13832;SDS011;6987;19.472;-99.276;2024-02-15T06:46:38;4.25;;;2.65;;
13832;SDS011;6987;19.472;-99.276;2024-02-15T06:49:07;5.35;;;2.78;;
13832;SDS011;6987;19.472;-99.276;2024-02-15T06:51:36;2.33;;;2.13;;
13832;SDS011;6987;19.472;-99.276;2024-02-15T06:54:05;2.45;;;2.25;;
13832;SDS011;6987;19.472;-99.276;2024-02-15T06:56:36;2.90;;;2.17;;
13832;SDS011;6987;19.472;-99.276;2024-02-15T06:59:05;3.42;;;1.95;;
13832;SDS011;6987;19.472;-99.276;2024-02-15T07:01:36;2.85;;;2.45;;
13832;SDS011;6987;19.472;-99.276;2024-02-15T07:04:04;6.15;;;2.50;;
13832;SDS011;6987;19.472;-99.276;2024-02-15T07:06:34;3.15;;;2.20;;
13832;SDS011;6987;19.472;-99.276;2024-02-15T07:09:03;4.97;;;2.80;;
13832;SDS011;6987;19.472;-99.276;2024-02-15T07:11:32;4.07;;;2.20;;
13832;SDS011;6987;19.472;-99.276;2024-02-15T07:14:01;10.00;;;2.33;;
13832;SDS011;6987;19.472;-99.276;2024-02-15T07:16:30;3.95;;;2.47;;
13832;SDS011;6987;19.472;-99.276;2024-02-15T07:19:00;2.47;;;1.95;;
13832;SDS011;6987;19.472;-99.276;2024-02-15T07:21:29;6.25;;;2.22;;
13832;SDS011;6987;19.472;-99.276;2024-02-15T07:23:58;3.08;;;2.53;;
13832;SDS011;6987;19.472;-99.276;2024-02-15T07:26:27;6.00;;;2.03;;
13832;SDS011;6987;19.472;-99.276;2024-02-15T07:28:55;4.20;;;1.90;;
13832;SDS011;6987;19.472;-99.276;2024-02-15T07:31:27;4.18;;;2.03;;
13832;SDS011;6987;19.472;-99.276;2024-02-15T07:33:57;7.28;;;2.33;;
13832;SDS011;6987;19.472;-99.276;2024-02-15T07:36:27;3.97;;;2.20;;
13832;SDS011;6987;19.472;-99.276;2024-02-15T07:38:56;3.88;;;2.03;;
13832;SDS011;6987;19.472;-99.276;2024-02-15T07:41:26;5.47;;;2.05;;
13832;SDS011;6987;19.472;-99.276;2024-02-15T07:43:55;1.75;;;1.40;;
13832;SDS011;6987;19.472;-99.276;2024-02-15T07:46:24;4.72;;;1.60;;
13832;SDS011;6987;19.472;-99.276;2024-02-15T07:48:53;2.42;;;1.90;;
13832;SDS011;6987;19.472;-99.276;2024-02-15T07:51:22;2.83;;;1.80;;
13832;SDS011;6987;19.472;-99.276;2024-02-15T07:53:53;4.20;;;1.63;;
13832;SDS011;6987;19.472;-99.276;2024-02-15T07:56:22;4.63;;;1.92;;
13832;SDS011;6987;19.472;-99.276;2024-02-15T07:58:51;2.63;;;1.45;;
13832;SDS011;6987;19.472;-99.276;2024-02-15T08:01:19;2.28;;;1.80;;
13832;SDS011;6987;19.472;-99.276;2024-02-15T08:03:48;3.08;;;1.70;;
13832;SDS011;6987;19.472;-99.276;2024-02-15T08:06:18;3.38;;;1.70;;
13832;SDS011;6987;19.472;-99.276;2024-02-15T08:08:49;2.15;;;1.95;;
13832;SDS011;6987;19.472;-99.276;2024-02-15T08:11:19;1.70;;;1.60;;
13832;SDS011;6987;19.472;-99.276;2024-02-15T08:13:49;3.25;;;2.20;;
13832;SDS011;6987;19.472;-99.276;2024-02-15T08:16:20;4.57;;;2.00;;
13832;SDS011;6987;19.472;-99.276;2024-02-15T08:18:49;1.88;;;1.77;;
13832;SDS011;6987;19.472;-99.276;2024-02-15T08:21:25;3.30;;;1.83;;
13832;SDS011;6987;19.472;-99.276;2024-02-15T08:23:55;2.38;;;1.45;;
13832;SDS011;6987;19.472;-99.276;2024-02-15T08:26:26;8.05;;;1.70;;
13832;SDS011;6987;19.472;-99.276;2024-02-15T08:28:55;7.10;;;1.80;;
13832;SDS011;6987;19.472;-99.276;2024-02-15T08:31:24;2.33;;;2.08;;
13832;SDS011;6987;19.472;-99.276;2024-02-15T08:33:53;4.80;;;1.58;;
13832;SDS011;6987;19.472;-99.276;2024-02-15T08:36:22;2.35;;;1.60;;
13832;SDS011;6987;19.472;-99.276;2024-02-15T08:38:51;1.70;;;1.60;;
13832;SDS011;6987;19.472;-99.276;2024-02-15T08:41:20;1.67;;;1.45;;
13832;SDS011;6987;19.472;-99.276;2024-02-15T08:43:54;2.35;;;1.50;;
13832;SDS011;6987;19.472;-99.276;2024-02-15T08:46:24;1.40;;;1.30;;
13832;SDS011;6987;19.472;-99.276;2024-02-15T08:48:53;2.97;;;2.28;;
13832;SDS011;6987;19.472;-99.276;2024-02-15T08:51:21;4.75;;;1.88;;
13832;SDS011;6987;19.472;-99.276;2024-02-15T08:53:50;1.67;;;1.58;;
13832;SDS011;6987;19.472;-99.276;2024-02-15T08:56:19;2.67;;;1.42;;
13832;SDS011;6987;19.472;-99.276;2024-02-15T08:58:48;2.10;;;1.80;;
13832;SDS011;6987;19.472;-99.276;2024-02-15T09:01:19;3.33;;;1.65;;
13832;SDS011;6987;19.472;-99.276;2024-02-15T09:03:48;3.25;;;1.33;;
13832;SDS011;6987;19.472;-99.276;2024-02-15T09:06:17;1.70;;;1.60;;
13832;SDS011;6987;19.472;-99.276;2024-02-15T09:08:46;1.92;;;1.77;;
13832;SDS011;6987;19.472;-99.276;2024-02-15T09:11:15;1.75;;;1.65;;
13832;SDS011;6987;19.472;-99.276;2024-02-15T09:13:44;1.80;;;1.70;;
13832;SDS011;6987;19.472;-99.276;2024-02-15T09:16:15;2.97;;;1.80;;
13832;SDS011;6987;19.472;-99.276;2024-02-15T09:18:45;2.97;;;1.60;;
13832;SDS011;6987;19.472;-99.276;2024-02-15T09:21:14;1.60;;;1.50;;
13832;SDS011;6987;19.472;-99.276;2024-02-15T09:23:43;9.43;;;1.90;;
13832;SDS011;6987;19.472;-99.276;2024-02-15T09:26:13;2.83;;;1.83;;
13832;SDS011;6987;19.472;-99.276;2024-02-15T09:28:41;5.07;;;1.55;;
13832;SDS011;6987;19.472;-99.276;2024-02-15T09:31:12;2.00;;;1.40;;
13832;SDS011;6987;19.472;-99.276;2024-02-15T09:33:41;7.65;;;1.88;;
13832;SDS011;6987;19.472;-99.276;2024-02-15T09:36:12;5.78;;;2.80;;
13832;SDS011;6987;19.472;-99.276;2024-02-15T09:38:42;6.25;;;2.05;;
13832;SDS011;6987;19.472;-99.276;2024-02-15T09:41:12;5.82;;;2.13;;
13832;SDS011;6987;19.472;-99.276;2024-02-15T09:43:41;1.70;;;1.60;;
13832;SDS011;6987;19.472;-99.276;2024-02-15T09:46:12;5.53;;;2.10;;
13832;SDS011;6987;19.472;-99.276;2024-02-15T09:48:43;2.95;;;1.70;;
13832;SDS011;6987;19.472;-99.276;2024-02-15T09:51:16;2.30;;;1.80;;
13832;SDS011;6987;19.472;-99.276;2024-02-15T09:53:47;2.13;;;1.92;;
13832;SDS011;6987;19.472;-99.276;2024-02-15T09:56:15;10.90;;;2.17;;
13832;SDS011;6987;19.472;-99.276;2024-02-15T09:58:45;5.35;;;2.00;;
13832;SDS011;6987;19.472;-99.276;2024-02-15T10:01:14;6.88;;;2.10;;
13832;SDS011;6987;19.472;-99.276;2024-02-15T10:03:43;1.85;;;1.75;;
13832;SDS011;6987;19.472;-99.276;2024-02-15T10:06:12;7.65;;;2.25;;
13832;SDS011;6987;19.472;-99.276;2024-02-15T10:08:45;2.58;;;2.13;;
13832;SDS011;6987;19.472;-99.276;2024-02-15T10:11:14;3.60;;;2.67;;
13832;SDS011;6987;19.472;-99.276;2024-02-15T10:13:43;2.72;;;2.53;;
13832;SDS011;6987;19.472;-99.276;2024-02-15T10:16:16;4.70;;;2.15;;
13832;SDS011;6987;19.472;-99.276;2024-02-15T10:18:45;5.13;;;1.80;;
13832;SDS011;6987;19.472;-99.276;2024-02-15T10:21:24;5.15;;;2.45;;
13832;SDS011;6987;19.472;-99.276;2024-02-15T10:26:47;4.18;;;3.55;;
13832;SDS011;6987;19.472;-99.276;2024-02-15T10:29:17;3.20;;;2.40;;
13832;SDS011;6987;19.472;-99.276;2024-02-15T10:31:55;3.58;;;2.55;;
13832;SDS011;6987;19.472;-99.276;2024-02-15T10:34:24;15.23;;;2.65;;
13832;SDS011;6987;19.472;-99.276;2024-02-15T10:36:54;4.95;;;3.53;;
13832;SDS011;6987;19.472;-99.276;2024-02-15T10:39:23;4.70;;;3.33;;
13832;SDS011;6987;19.472;-99.276;2024-02-15T10:41:55;4.05;;;2.80;;
13832;SDS011;6987;19.472;-99.276;2024-02-15T10:44:24;4.85;;;3.22;;
13832;SDS011;6987;19.472;-99.276;2024-02-15T10:46:53;4.05;;;3.47;;
13832;SDS011;6987;19.472;-99.276;2024-02-15T10:49:22;3.63;;;3.20;;
13832;SDS011;6987;19.472;-99.276;2024-02-15T10:51:55;8.38;;;4.13;;
13832;SDS011;6987;19.472;-99.276;2024-02-15T10:54:31;5.57;;;3.50;;
13832;SDS011;6987;19.472;-99.276;2024-02-15T10:57:04;3.70;;;3.40;;
13832;SDS011;6987;19.472;-99.276;2024-02-15T10:59:35;4.90;;;2.78;;
13832;SDS011;6987;19.472;-99.276;2024-02-15T11:02:18;4.03;;;3.03;;
13832;SDS011;6987;19.472;-99.276;2024-02-15T11:04:49;3.15;;;2.95;;
13832;SDS011;6987;19.472;-99.276;2024-02-15T11:07:23;4.93;;;2.67;;
13832;SDS011;6987;19.472;-99.276;2024-02-15T11:09:53;4.63;;;2.97;;
13832;SDS011;6987;19.472;-99.276;2024-02-15T11:12:24;4.57;;;3.65;;
13832;SDS011;6987;19.472;-99.276;2024-02-15T11:14:54;5.50;;;3.45;;
13832;SDS011;6987;19.472;-99.276;2024-02-15T11:20:11;8.27;;;3.22;;
13832;SDS011;6987;19.472;-99.276;2024-02-15T11:22:59;6.05;;;3.10;;
13832;SDS011;6987;19.472;-99.276;2024-02-15T11:25:31;5.47;;;3.15;;
13832;SDS011;6987;19.472;-99.276;2024-02-15T11:30:45;2.97;;;2.45;;
13832;SDS011;6987;19.472;-99.276;2024-02-15T11:36:04;5.25;;;3.38;;
13832;SDS011;6987;19.472;-99.276;2024-02-15T11:38:33;4.35;;;3.13;;
13832;SDS011;6987;19.472;-99.276;2024-02-15T11:41:04;6.57;;;2.97;;
13832;SDS011;6987;19.472;-99.276;2024-02-15T11:43:47;4.90;;;3.25;;
13832;SDS011;6987;19.472;-99.276;2024-02-15T11:46:22;4.97;;;3.40;;
13832;SDS011;6987;19.472;-99.276;2024-02-15T11:48:56;6.72;;;3.75;;
13832;SDS011;6987;19.472;-99.276;2024-02-15T11:51:29;7.97;;;4.03;;
13832;SDS011;6987;19.472;-99.276;2024-02-15T11:54:02;7.55;;;3.47;;
13832;SDS011;6987;19.472;-99.276;2024-02-15T11:56:52;8.27;;;3.80;;
13832;SDS011;6987;19.472;-99.276;2024-02-15T11:59:39;6.85;;;3.50;;
13832;SDS011;6987;19.472;-99.276;2024-02-15T12:02:21;6.20;;;3.90;;
13832;SDS011;6987;19.472;-99.276;2024-02-15T12:05:06;10.73;;;4.35;;
13832;SDS011;6987;19.472;-99.276;2024-02-15T12:07:54;8.52;;;4.57;;
13832;SDS011;6987;19.472;-99.276;2024-02-15T12:10:40;7.68;;;3.97;;
13832;SDS011;6987;19.472;-99.276;2024-02-15T12:13:26;6.97;;;3.67;;
13832;SDS011;6987;19.472;-99.276;2024-02-15T12:16:15;10.52;;;4.63;;
13832;SDS011;6987;19.472;-99.276;2024-02-15T12:19:02;6.07;;;4.10;;
13832;SDS011;6987;19.472;-99.276;2024-02-15T12:21:31;14.68;;;4.22;;
13832;SDS011;6987;19.472;-99.276;2024-02-15T12:24:01;11.77;;;4.57;;
13832;SDS011;6987;19.472;-99.276;2024-02-15T12:26:31;12.48;;;4.43;;
13832;SDS011;6987;19.472;-99.276;2024-02-15T12:29:01;9.43;;;4.18;;
13832;SDS011;6987;19.472;-99.276;2024-02-15T12:31:32;11.95;;;4.15;;
13832;SDS011;6987;19.472;-99.276;2024-02-15T12:34:06;6.68;;;3.40;;
13832;SDS011;6987;19.472;-99.276;2024-02-15T12:36:35;17.40;;;4.20;;
13832;SDS011;6987;19.472;-99.276;2024-02-15T12:39:04;14.00;;;4.10;;
13832;SDS011;6987;19.472;-99.276;2024-02-15T12:41:38;22.40;;;4.60;;
13832;SDS011;6987;19.472;-99.276;2024-02-15T12:44:08;8.85;;;3.65;;
13832;SDS011;6987;19.472;-99.276;2024-02-15T12:46:37;14.38;;;4.05;;
13832;SDS011;6987;19.472;-99.276;2024-02-15T12:49:08;11.55;;;3.60;;
13832;SDS011;6987;19.472;-99.276;2024-02-15T12:51:39;5.05;;;3.22;;
13832;SDS011;6987;19.472;-99.276;2024-02-15T12:54:08;10.50;;;3.92;;
13832;SDS011;6987;19.472;-99.276;2024-02-15T12:56:40;12.82;;;3.33;;
13832;SDS011;6987;19.472;-99.276;2024-02-15T12:59:08;13.65;;;3.63;;
13832;SDS011;6987;19.472;-99.276;2024-02-15T13:01:37;11.75;;;3.75;;
13832;SDS011;6987;19.472;-99.276;2024-02-15T13:04:08;8.80;;;3.28;;
13832;SDS011;6987;19.472;-99.276;2024-02-15T13:06:37;6.07;;;3.17;;
13832;SDS011;6987;19.472;-99.276;2024-02-15T13:09:06;11.93;;;3.45;;
13832;SDS011;6987;19.472;-99.276;2024-02-15T13:11:38;7.15;;;2.70;;
13832;SDS011;6987;19.472;-99.276;2024-02-15T13:14:10;8.00;;;3.50;;
13832;SDS011;6987;19.472;-99.276;2024-02-15T13:16:39;6.93;;;3.28;;
13832;SDS011;6987;19.472;-99.276;2024-02-15T13:19:10;12.02;;;3.40;;
13832;SDS011;6987;19.472;-99.276;2024-02-15T13:21:39;7.30;;;3.63;;
13832;SDS011;6987;19.472;-99.276;2024-02-15T13:24:07;11.07;;;3.67;;
13832;SDS011;6987;19.472;-99.276;2024-02-15T13:26:37;19.75;;;4.60;;
13832;SDS011;6987;19.472;-99.276;2024-02-15T13:29:06;11.82;;;4.47;;
13832;SDS011;6987;19.472;-99.276;2024-02-15T13:31:36;15.00;;;4.50;;
13832;SDS011;6987;19.472;-99.276;2024-02-15T13:34:05;27.10;;;4.93;;
13832;SDS011;6987;19.472;-99.276;2024-02-15T13:36:35;19.13;;;4.40;;
13832;SDS011;6987;19.472;-99.276;2024-02-15T13:39:05;10.95;;;4.65;;
13832;SDS011;6987;19.472;-99.276;2024-02-15T13:41:35;23.92;;;5.00;;
13832;SDS011;6987;19.472;-99.276;2024-02-15T13:44:04;16.85;;;4.40;;
13832;SDS011;6987;19.472;-99.276;2024-02-15T13:46:33;33.22;;;6.13;;
13832;SDS011;6987;19.472;-99.276;2024-02-15T13:49:03;27.60;;;6.35;;
13832;SDS011;6987;19.472;-99.276;2024-02-15T13:51:32;12.00;;;4.68;;
13832;SDS011;6987;19.472;-99.276;2024-02-15T13:54:03;14.88;;;4.53;;
13832;SDS011;6987;19.472;-99.276;2024-02-15T13:56:33;16.27;;;4.40;;
13832;SDS011;6987;19.472;-99.276;2024-02-15T13:59:02;9.25;;;4.40;;
13832;SDS011;6987;19.472;-99.276;2024-02-15T14:01:31;17.15;;;4.20;;
13832;SDS011;6987;19.472;-99.276;2024-02-15T14:04:00;9.30;;;4.22;;
13832;SDS011;6987;19.472;-99.276;2024-02-15T14:06:28;11.85;;;4.25;;
13832;SDS011;6987;19.472;-99.276;2024-02-15T14:08:57;13.18;;;4.45;;
13832;SDS011;6987;19.472;-99.276;2024-02-15T14:11:28;10.90;;;3.78;;
13832;SDS011;6987;19.472;-99.276;2024-02-15T14:13:57;5.43;;;4.00;;
13832;SDS011;6987;19.472;-99.276;2024-02-15T14:16:26;6.95;;;3.47;;
13832;SDS011;6987;19.472;-99.276;2024-02-15T14:18:55;5.35;;;3.58;;
13832;SDS011;6987;19.472;-99.276;2024-02-15T14:21:25;3.55;;;3.28;;
13832;SDS011;6987;19.472;-99.276;2024-02-15T14:23:54;5.10;;;3.55;;
13832;SDS011;6987;19.472;-99.276;2024-02-15T14:26:23;4.28;;;3.40;;
13832;SDS011;6987;19.472;-99.276;2024-02-15T14:28:55;8.52;;;4.13;;
13832;SDS011;6987;19.472;-99.276;2024-02-15T14:31:28;11.82;;;3.90;;
13832;SDS011;6987;19.472;-99.276;2024-02-15T14:34:14;10.38;;;4.07;;
13832;SDS011;6987;19.472;-99.276;2024-02-15T14:36:46;14.20;;;4.03;;
13832;SDS011;6987;19.472;-99.276;2024-02-15T14:39:15;11.38;;;3.63;;
13832;SDS011;6987;19.472;-99.276;2024-02-15T14:41:45;21.02;;;4.30;;
13832;SDS011;6987;19.472;-99.276;2024-02-15T14:44:15;11.40;;;3.65;;
13832;SDS011;6987;19.472;-99.276;2024-02-15T14:46:44;5.03;;;2.78;;
13832;SDS011;6987;19.472;-99.276;2024-02-15T14:49:13;11.43;;;3.25;;
13832;SDS011;6987;19.472;-99.276;2024-02-15T14:51:42;7.22;;;2.83;;
13832;SDS011;6987;19.472;-99.276;2024-02-15T14:54:11;3.08;;;2.88;;
13832;SDS011;6987;19.472;-99.276;2024-02-15T14:56:40;5.88;;;2.85;;
13832;SDS011;6987;19.472;-99.276;2024-02-15T14:59:09;4.22;;;2.58;;
13832;SDS011;6987;19.472;-99.276;2024-02-15T15:01:43;3.97;;;2.35;;